createdAt,value
2022-11-17T00:01:48.880Z,44.03
2022-11-17T00:06:51.167Z,42.38
2022-11-17T00:12:12.037Z,47.70
2022-11-17T00:17:14.509Z,50.22
2022-11-17T00:22:16.693Z,40.75
2022-11-17T00:27:18.993Z,52.88
2022-11-17T00:32:39.531Z,51.90
2022-11-17T00:38:04.570Z,46.72
2022-11-17T00:43:06.880Z,46.50
2022-11-17T00:48:09.268Z,45.97
2022-11-17T00:53:11.477Z,50.28
2022-11-17T00:58:13.714Z,44.40
2022-11-17T01:03:15.970Z,45.22
2022-11-17T01:08:18.182Z,39.00
2022-11-17T01:13:20.430Z,38.83
2022-11-17T01:18:22.647Z,38.63
2022-11-17T01:23:24.841Z,38.63
2022-11-17T01:28:27.233Z,40.85
2022-11-17T01:33:29.996Z,37.03
2022-11-17T01:38:32.790Z,40.13
2022-11-17T01:43:40.138Z,47.05
2022-11-17T01:48:44.927Z,34.25
2022-11-17T01:53:50.855Z,43.10
2022-11-17T01:59:03.173Z,36.95
2022-11-17T02:04:05.722Z,39.05
2022-11-17T02:09:08.541Z,41.90
2022-11-17T02:14:11.092Z,38.28
2022-11-17T02:19:16.972Z,38.20
2022-11-17T02:24:47.952Z,41.40
2022-11-17T02:30:04.349Z,36.45
2022-11-17T02:35:25.329Z,41.63
2022-11-17T02:40:35.119Z,34.35
2022-11-17T02:45:46.078Z,32.63
2022-11-17T02:50:50.162Z,31.45
2022-11-17T02:55:53.937Z,35.92
2022-11-17T03:01:15.928Z,32.47
2022-11-17T03:06:36.535Z,38.55
2022-11-17T03:12:14.189Z,41.80
2022-11-17T03:17:20.085Z,39.13
2022-11-17T03:22:34.204Z,39.03
2022-11-17T03:27:39.636Z,30.58
2022-11-17T03:32:47.292Z,31.33
2022-11-17T03:37:56.631Z,33.05
2022-11-17T03:43:05.941Z,31.13
2022-11-17T03:48:34.465Z,30.30
2022-11-17T03:53:37.317Z,30.65
2022-11-17T03:58:47.074Z,29.35
2022-11-17T04:03:49.465Z,28.42
2022-11-17T04:08:51.804Z,27.15
2022-11-17T04:14:12.494Z,28.75
2022-11-17T04:19:14.705Z,33.70
2022-11-17T04:24:16.907Z,26.92
2022-11-17T04:29:19.438Z,32.72
2022-11-17T04:34:21.625Z,28.27
2022-11-17T04:39:23.881Z,28.08
2022-11-17T04:44:28.708Z,24.58
2022-11-17T04:49:33.092Z,28.75
2022-11-17T04:54:35.819Z,27.60
2022-11-17T04:59:38.040Z,33.08
2022-11-17T05:04:58.592Z,27.98
2022-11-17T05:10:01.765Z,33.75
2022-11-17T05:15:04.140Z,26.60
2022-11-17T05:20:07.440Z,31.08
2022-11-17T05:25:10.165Z,36.55
2022-11-17T05:30:12.791Z,33.83
2022-11-17T05:35:15.038Z,28.73
2022-11-17T05:40:17.449Z,39.90
2022-11-17T05:45:24.504Z,31.75
2022-11-17T05:50:27.247Z,39.05
2022-11-17T05:55:29.571Z,36.03
2022-11-17T06:00:32.976Z,35.92
2022-11-17T06:05:35.321Z,37.40
2022-11-17T06:10:37.815Z,40.50
2022-11-17T06:15:40.226Z,36.17
2022-11-17T06:20:48.866Z,39.22
2022-11-17T06:25:51.288Z,24.35
2022-11-17T06:30:54.743Z,32.08
2022-11-17T06:35:59.873Z,29.20
2022-11-17T06:41:07.524Z,21.17
2022-11-17T06:46:13.859Z,26.42
2022-11-17T06:51:16.217Z,27.45
2022-11-17T06:56:18.781Z,27.63
2022-11-17T07:01:21.466Z,30.85
2022-11-17T07:06:24.379Z,27.80
2022-11-17T07:11:27.130Z,26.10
2022-11-17T07:16:31.308Z,32.08
2022-11-17T07:21:33.773Z,21.25
2022-11-17T07:26:36.095Z,17.67
2022-11-17T07:31:38.355Z,21.45
2022-11-17T07:36:40.654Z,26.50
2022-11-17T07:41:42.979Z,26.23
2022-11-17T07:46:45.229Z,15.50
2022-11-17T07:51:47.492Z,18.67
2022-11-17T07:56:49.827Z,20.30
2022-11-17T08:01:52.391Z,18.98
2022-11-17T08:06:54.838Z,22.90
2022-11-17T08:11:58.241Z,29.33
2022-11-17T08:17:00.787Z,25.02
2022-11-17T08:22:03.159Z,19.40
2022-11-17T08:27:05.431Z,16.02
2022-11-17T08:32:07.844Z,22.83
2022-11-17T08:37:10.119Z,24.48
2022-11-17T08:42:12.433Z,18.38
2022-11-17T08:47:14.665Z,19.63
2022-11-17T08:52:17.179Z,14.93
2022-11-17T08:57:19.676Z,14.15
2022-11-17T09:02:21.982Z,32.10
2022-11-17T09:07:24.411Z,26.35
2022-11-17T09:12:26.842Z,32.25
2022-11-17T09:17:29.145Z,30.85
2022-11-17T09:22:31.394Z,28.48
2022-11-17T09:27:33.861Z,28.83
2022-11-17T09:32:36.547Z,20.92
2022-11-17T09:37:38.961Z,24.27
2022-11-17T09:42:42.577Z,28.45
2022-11-17T09:48:02.558Z,18.52
2022-11-17T09:54:15.930Z,19.85
2022-11-17T09:59:21.984Z,13.02
2022-11-17T10:04:28.663Z,20.75
2022-11-17T10:09:41.794Z,21.75
2022-11-17T10:14:44.931Z,21.92
2022-11-17T10:19:47.257Z,26.17
2022-11-17T10:24:52.559Z,18.58
2022-11-17T10:30:05.808Z,18.40
2022-11-17T10:35:17.349Z,15.95
2022-11-17T10:40:28.802Z,16.67
2022-11-17T10:45:31.291Z,17.90
2022-11-17T10:50:33.620Z,19.50
2022-11-17T10:55:36.695Z,15.32
2022-11-17T11:00:39.175Z,19.80
2022-11-17T11:05:55.290Z,18.52
2022-11-17T11:11:00.351Z,23.63
2022-11-17T11:16:02.909Z,18.90
2022-11-17T11:21:24.791Z,17.45
2022-11-17T11:26:40.541Z,18.40
2022-11-17T11:31:58.646Z,13.38
2022-11-17T11:37:15.567Z,10.90
2022-11-17T11:42:46.591Z,12.88
2022-11-17T11:48:00.873Z,9.07
2022-11-17T11:53:11.953Z,12.07
2022-11-17T11:58:23.928Z,11.38
2022-11-17T12:03:53.552Z,15.02
2022-11-17T12:09:32.063Z,8.95
2022-11-17T12:14:37.868Z,12.95
2022-11-17T12:20:00.525Z,12.10
2022-11-17T12:25:31.821Z,11.82
2022-11-17T12:30:34.162Z,10.13
2022-11-17T12:35:39.512Z,12.55
2022-11-17T12:40:44.653Z,17.02
2022-11-17T12:45:58.746Z,19.00
2022-11-17T12:51:06.525Z,17.10
2022-11-17T12:56:28.203Z,15.43
2022-11-17T13:01:33.318Z,14.38
2022-11-17T13:06:36.750Z,25.67
2022-11-17T13:11:39.515Z,16.27
2022-11-17T13:16:50.990Z,19.73
2022-11-17T13:22:00.341Z,15.32
2022-11-17T13:27:07.786Z,19.23
2022-11-17T13:32:21.655Z,26.27
2022-11-17T13:37:28.862Z,31.25
2022-11-17T13:42:32.887Z,21.80
2022-11-17T13:47:37.847Z,21.92
2022-11-17T13:52:46.486Z,18.65
2022-11-17T13:57:59.216Z,28.80
2022-11-17T14:03:06.057Z,18.48
2022-11-17T14:08:23.346Z,16.15
2022-11-17T14:13:31.394Z,27.10
2022-11-17T14:18:39.376Z,32.10
2022-11-17T14:23:43.718Z,42.70
2022-11-17T14:28:46.287Z,39.80
2022-11-17T14:33:48.590Z,25.95
2022-11-17T14:38:50.971Z,23.98
2022-11-17T14:43:53.256Z,15.32
2022-11-17T14:48:56.308Z,20.80
2022-11-17T14:53:59.330Z,10.30
2022-11-17T14:59:01.626Z,11.30
2022-11-17T15:04:27.371Z,11.70
2022-11-17T15:09:27.311Z,7.20
2022-11-17T15:14:29.578Z,4.95
2022-11-17T15:19:31.858Z,9.50
2022-11-17T15:24:34.147Z,8.25
2022-11-17T15:29:36.582Z,5.88
2022-11-17T15:34:39.044Z,5.90
2022-11-17T15:39:41.480Z,4.45
2022-11-17T15:44:43.758Z,6.25
2022-11-17T15:49:47.228Z,5.47
2022-11-17T15:54:49.474Z,9.27
2022-11-17T15:59:52.327Z,6.55
2022-11-17T16:04:54.749Z,4.18
2022-11-17T16:09:56.960Z,11.20
2022-11-17T16:14:59.272Z,11.65
2022-11-17T16:20:01.786Z,9.30
2022-11-17T16:25:05.946Z,10.77
2022-11-17T16:30:09.292Z,9.13
2022-11-17T16:35:11.950Z,12.15
2022-11-17T16:40:14.218Z,14.57
2022-11-17T16:45:16.509Z,10.32
2022-11-17T16:50:19.044Z,9.93
2022-11-17T16:55:21.380Z,4.20
2022-11-17T17:00:23.743Z,12.98
2022-11-17T17:05:26.718Z,15.10
2022-11-17T17:10:28.922Z,16.20
2022-11-17T17:15:31.302Z,12.77
2022-11-17T17:20:33.941Z,21.90
2022-11-17T17:25:36.199Z,20.48
2022-11-17T17:30:38.665Z,18.30
2022-11-17T17:35:40.904Z,18.92
2022-11-17T17:40:43.261Z,22.77
2022-11-17T17:45:45.591Z,28.40
2022-11-17T17:50:47.985Z,25.40
2022-11-17T17:55:50.235Z,57.45
2022-11-17T18:00:53.457Z,44.15
2022-11-17T18:06:00.558Z,35.17
2022-11-17T18:11:04.491Z,43.60
2022-11-17T18:16:18.299Z,73.88
2022-11-17T18:21:20.839Z,55.28
2022-11-17T18:26:34.098Z,69.43
2022-11-17T18:31:37.862Z,68.07
2022-11-17T18:36:40.095Z,62.70
2022-11-17T18:41:42.934Z,70.15
2022-11-17T18:46:45.564Z,67.78
2022-11-17T18:51:48.035Z,54.10
2022-11-17T18:56:50.916Z,60.13
2022-11-17T19:01:53.274Z,73.68
2022-11-17T19:06:55.550Z,76.63
2022-11-17T19:11:57.992Z,63.85
2022-11-17T19:17:00.353Z,61.22
2022-11-17T19:22:02.788Z,61.35
2022-11-17T19:27:05.160Z,92.55
2022-11-17T19:32:07.595Z,84.57
2022-11-17T19:37:09.826Z,77.00
2022-11-17T19:42:12.734Z,83.25
2022-11-17T19:47:15.055Z,77.72
2022-11-17T19:52:17.514Z,89.80
2022-11-17T19:57:20.527Z,91.60
2022-11-17T20:02:22.952Z,81.95
2022-11-17T20:07:25.445Z,79.72
2022-11-17T20:12:27.782Z,99.10
2022-11-17T20:17:30.102Z,90.03
2022-11-17T20:22:32.606Z,97.38
2022-11-17T20:27:35.106Z,79.28
2022-11-17T20:32:37.559Z,57.67
2022-11-17T20:37:39.924Z,65.50
2022-11-17T20:42:42.296Z,67.80
2022-11-17T20:47:44.507Z,70.35
2022-11-17T20:52:46.896Z,72.43
2022-11-17T20:57:49.162Z,69.25
2022-11-17T21:02:51.404Z,72.45
2022-11-17T21:07:53.624Z,69.05
2022-11-17T21:12:55.814Z,52.97
2022-11-17T21:18:16.438Z,52.10
2022-11-17T21:23:18.760Z,54.28
2022-11-17T21:28:21.153Z,49.25
2022-11-17T21:33:23.634Z,51.92
2022-11-17T21:38:25.834Z,42.67
2022-11-17T21:43:28.242Z,48.38
2022-11-17T21:48:30.567Z,44.90
2022-11-17T21:53:33.132Z,38.17
2022-11-17T21:58:35.516Z,36.42
2022-11-17T22:03:38.748Z,39.13
2022-11-17T22:08:43.120Z,39.42
2022-11-17T22:13:45.340Z,43.65
2022-11-17T22:18:47.667Z,43.85
2022-11-17T22:23:50.546Z,44.30
2022-11-17T22:28:54.852Z,33.88
2022-11-17T22:33:57.178Z,43.80
2022-11-17T22:38:59.460Z,33.85
2022-11-17T22:44:01.718Z,35.17
2022-11-17T22:49:04.144Z,30.92
2022-11-17T22:54:08.389Z,34.22
2022-11-17T22:59:10.641Z,35.40
2022-11-17T23:04:13.444Z,36.25
2022-11-17T23:09:16.333Z,37.72
2022-11-17T23:14:18.663Z,33.60
2022-11-17T23:19:21.224Z,27.38
2022-11-17T23:24:23.678Z,28.35
2022-11-17T23:29:25.965Z,32.60
2022-11-17T23:34:28.274Z,27.85
2022-11-17T23:39:30.629Z,32.65
2022-11-17T23:44:33.055Z,23.27
2022-11-17T23:49:35.372Z,27.77
2022-11-17T23:54:37.980Z,27.63
2022-11-17T23:59:40.432Z,32.83
